createdAt,value
2022-11-19T00:01:23.706Z,5.77
2022-11-19T00:03:52.950Z,6.40
2022-11-19T00:06:21.985Z,5.83
2022-11-19T00:08:49.610Z,6.87
2022-11-19T00:11:38.012Z,6.30
2022-11-19T00:14:05.734Z,6.13
2022-11-19T00:16:33.181Z,6.87
2022-11-19T00:19:00.646Z,6.93
2022-11-19T00:21:28.328Z,7.63
2022-11-19T00:23:55.894Z,6.43
2022-11-19T00:26:25.330Z,7.93
2022-11-19T00:28:52.753Z,8.10
2022-11-19T00:31:20.206Z,7.90
2022-11-19T00:33:50.648Z,8.93
2022-11-19T00:36:18.621Z,8.60
2022-11-19T00:38:47.157Z,6.97
2022-11-19T00:41:14.604Z,8.73
2022-11-19T00:43:50.248Z,8.30
2022-11-19T00:46:22.445Z,7.97
2022-11-19T00:48:50.895Z,7.90
2022-11-19T00:51:18.943Z,8.10
2022-11-19T00:53:46.727Z,9.03
2022-11-19T00:56:16.915Z,8.87
2022-11-19T00:58:45.876Z,8.57
2022-11-19T01:01:14.373Z,8.87
2022-11-19T01:03:43.872Z,8.57
2022-11-19T01:06:15.258Z,7.83
2022-11-19T01:08:47.323Z,9.10
2022-11-19T01:11:16.131Z,8.93
2022-11-19T01:13:45.557Z,8.27
2022-11-19T01:16:14.909Z,8.60
2022-11-19T01:18:43.429Z,8.30
2022-11-19T01:21:12.417Z,8.43
2022-11-19T01:23:40.673Z,8.63
2022-11-19T01:26:08.766Z,8.50
2022-11-19T01:28:37.487Z,8.80
2022-11-19T01:31:09.135Z,7.70
2022-11-19T01:33:36.575Z,8.70
2022-11-19T01:36:06.080Z,9.10
2022-11-19T01:38:35.001Z,8.67
2022-11-19T01:41:04.150Z,10.13
2022-11-19T01:44:04.208Z,8.70
2022-11-19T01:46:37.006Z,10.00
2022-11-19T01:49:15.479Z,9.90
2022-11-19T01:51:57.777Z,9.30
2022-11-19T01:54:43.613Z,10.23
2022-11-19T01:57:12.311Z,9.93
2022-11-19T01:59:40.089Z,10.53
2022-11-19T02:02:07.404Z,11.73
2022-11-19T02:04:35.069Z,10.57
2022-11-19T02:07:02.954Z,10.50
2022-11-19T02:09:30.440Z,11.90
2022-11-19T02:12:14.178Z,11.07
2022-11-19T02:14:54.803Z,11.70
2022-11-19T02:17:41.476Z,11.30
2022-11-19T02:20:27.332Z,11.43
2022-11-19T02:22:57.840Z,11.37
2022-11-19T02:25:47.778Z,12.10
2022-11-19T02:28:34.315Z,10.90
2022-11-19T02:31:31.213Z,12.20
2022-11-19T02:34:00.991Z,12.80
2022-11-19T02:36:37.570Z,12.83
2022-11-19T02:39:17.614Z,11.33
2022-11-19T02:41:56.773Z,13.40
2022-11-19T02:44:42.750Z,12.03
2022-11-19T02:47:29.786Z,12.50
2022-11-19T02:50:00.218Z,12.30
2022-11-19T02:52:28.592Z,12.60
2022-11-19T02:54:56.484Z,12.70
2022-11-19T02:57:23.948Z,12.83
2022-11-19T03:00:09.808Z,12.00
2022-11-19T03:02:58.221Z,11.70
2022-11-19T03:05:29.704Z,14.10
2022-11-19T03:07:57.397Z,12.77
2022-11-19T03:10:26.119Z,12.70
2022-11-19T03:12:56.567Z,11.97
2022-11-19T03:15:58.524Z,13.40
2022-11-19T03:18:33.074Z,11.83
2022-11-19T03:21:08.153Z,11.90
2022-11-19T03:23:42.382Z,12.37
2022-11-19T03:26:17.943Z,12.30
2022-11-19T03:28:47.461Z,12.97
2022-11-19T03:31:16.174Z,11.90
2022-11-19T03:33:50.918Z,13.40
2022-11-19T03:36:20.610Z,13.37
2022-11-19T03:38:51.097Z,12.33
2022-11-19T03:41:21.268Z,13.07
2022-11-19T03:43:52.175Z,11.93
2022-11-19T03:46:19.972Z,11.80
2022-11-19T03:48:50.331Z,11.80
2022-11-19T03:51:41.487Z,12.23
2022-11-19T03:54:09.067Z,13.40
2022-11-19T03:56:38.283Z,13.50
2022-11-19T03:59:08.335Z,12.93
2022-11-19T04:01:36.660Z,12.20
2022-11-19T04:04:23.284Z,13.47
2022-11-19T04:06:50.961Z,12.10
2022-11-19T04:09:18.457Z,12.30
2022-11-19T04:14:14.873Z,12.80
2022-11-19T04:16:42.036Z,13.50
2022-11-19T04:19:09.235Z,13.00
2022-11-19T04:21:36.385Z,12.27
2022-11-19T04:24:03.673Z,12.47
2022-11-19T04:26:30.831Z,14.00
2022-11-19T04:28:57.974Z,13.30
2022-11-19T04:31:25.142Z,12.30
2022-11-19T04:33:52.274Z,10.80
2022-11-19T04:36:19.686Z,10.37
2022-11-19T04:38:47.315Z,8.90
2022-11-19T04:41:14.463Z,7.17
2022-11-19T04:43:42.630Z,7.50
2022-11-19T04:46:09.796Z,6.03
2022-11-19T04:48:36.916Z,7.03
2022-11-19T04:51:04.126Z,5.80
2022-11-19T04:53:31.331Z,6.00
2022-11-19T04:55:58.488Z,6.03
2022-11-19T04:58:25.633Z,6.33
2022-11-19T05:00:53.160Z,6.23
2022-11-19T05:03:20.295Z,6.53
2022-11-19T05:05:47.486Z,6.47
2022-11-19T05:08:14.627Z,5.90
2022-11-19T05:10:42.392Z,7.30
2022-11-19T05:13:09.939Z,7.10
2022-11-19T05:15:37.136Z,6.43
2022-11-19T05:18:04.311Z,7.03
2022-11-19T05:20:31.477Z,6.97
2022-11-19T05:22:58.674Z,6.97
2022-11-19T05:25:25.866Z,7.40
2022-11-19T05:27:53.113Z,8.47
2022-11-19T05:30:20.348Z,6.90
2022-11-19T05:32:48.064Z,7.33
2022-11-19T05:35:15.276Z,7.43
2022-11-19T05:37:42.448Z,8.67
2022-11-19T05:40:09.906Z,7.47
2022-11-19T05:42:37.091Z,7.13
2022-11-19T05:45:04.427Z,7.00
2022-11-19T05:47:31.621Z,7.50
2022-11-19T05:49:58.794Z,8.37
2022-11-19T05:52:25.932Z,7.63
2022-11-19T05:54:53.086Z,7.53
2022-11-19T05:57:20.230Z,7.10
2022-11-19T05:59:47.380Z,7.63
2022-11-19T06:02:14.550Z,8.33
2022-11-19T06:04:41.678Z,7.97
2022-11-19T06:07:08.876Z,7.57
2022-11-19T06:09:36.097Z,8.70
2022-11-19T06:12:03.381Z,8.87
2022-11-19T06:14:30.601Z,9.03
2022-11-19T06:16:59.815Z,8.30
2022-11-19T06:19:29.861Z,7.93
2022-11-19T06:21:57.189Z,8.20
2022-11-19T06:24:24.332Z,8.67
2022-11-19T06:26:51.550Z,8.83
2022-11-19T06:29:19.478Z,9.97
2022-11-19T06:31:46.970Z,8.97
2022-11-19T06:34:14.121Z,9.60
2022-11-19T06:36:45.090Z,9.30
2022-11-19T06:39:14.900Z,9.53
2022-11-19T06:41:43.555Z,9.03
2022-11-19T06:44:11.700Z,9.50
2022-11-19T06:46:38.878Z,9.60
2022-11-19T06:49:07.047Z,9.23
2022-11-19T06:51:34.205Z,9.77
2022-11-19T06:54:02.814Z,8.57
2022-11-19T06:56:30.361Z,9.80
2022-11-19T06:58:58.293Z,10.07
2022-11-19T07:01:25.620Z,8.70
2022-11-19T07:03:54.569Z,9.97
2022-11-19T07:06:21.757Z,10.03
2022-11-19T07:08:48.967Z,9.10
2022-11-19T07:11:25.590Z,10.60
2022-11-19T07:14:00.339Z,9.03
2022-11-19T07:16:29.211Z,9.57
2022-11-19T07:19:00.271Z,10.10
2022-11-19T07:21:28.228Z,10.10
2022-11-19T07:23:56.129Z,10.97
2022-11-19T07:26:25.334Z,10.03
2022-11-19T07:28:55.370Z,10.43
2022-11-19T07:31:24.465Z,12.37
2022-11-19T07:33:51.710Z,11.63
2022-11-19T07:36:18.914Z,9.90
2022-11-19T07:38:46.909Z,9.67
2022-11-19T07:41:33.302Z,9.20
2022-11-19T07:44:00.514Z,9.47
2022-11-19T07:46:27.680Z,8.73
2022-11-19T07:48:55.526Z,10.03
2022-11-19T07:51:23.235Z,9.80
2022-11-19T07:53:50.790Z,11.00
2022-11-19T07:56:18.320Z,10.10
2022-11-19T07:58:45.456Z,10.23
2022-11-19T08:01:18.685Z,10.03
2022-11-19T08:03:53.416Z,9.30
2022-11-19T08:06:28.429Z,9.53
2022-11-19T08:08:56.269Z,7.80
2022-11-19T08:11:23.831Z,9.07
2022-11-19T08:13:51.193Z,8.50
2022-11-19T08:16:36.918Z,8.80
2022-11-19T08:19:11.447Z,9.00
2022-11-19T08:21:42.683Z,8.53
2022-11-19T08:24:10.469Z,9.03
2022-11-19T08:26:37.978Z,10.37
2022-11-19T08:29:06.099Z,8.50
2022-11-19T08:31:34.871Z,9.37
2022-11-19T08:34:03.522Z,8.73
2022-11-19T08:36:30.788Z,8.77
2022-11-19T08:39:00.984Z,8.90
2022-11-19T08:41:46.950Z,9.43
2022-11-19T08:44:14.128Z,9.07
2022-11-19T08:46:42.439Z,7.87
2022-11-19T08:49:12.019Z,9.50
2022-11-19T08:51:39.268Z,8.53
2022-11-19T08:54:06.516Z,8.07
2022-11-19T08:56:35.051Z,9.13
2022-11-19T08:59:03.201Z,8.10
2022-11-19T09:01:31.130Z,8.10
2022-11-19T09:03:59.731Z,8.50
2022-11-19T09:06:27.270Z,6.47
2022-11-19T09:08:56.528Z,6.60
2022-11-19T09:11:23.649Z,6.20
2022-11-19T09:13:51.046Z,6.80
2022-11-19T09:16:18.290Z,6.77
2022-11-19T09:18:45.519Z,6.13
2022-11-19T09:21:15.199Z,6.07
2022-11-19T09:23:42.586Z,6.40
2022-11-19T09:26:14.952Z,6.50
2022-11-19T09:28:42.638Z,7.60
2022-11-19T09:31:10.926Z,7.90
2022-11-19T09:33:39.793Z,8.30
2022-11-19T09:36:07.101Z,6.00
2022-11-19T09:38:37.481Z,6.87
2022-11-19T09:41:14.421Z,6.77
2022-11-19T09:44:00.684Z,6.60
2022-11-19T09:46:37.044Z,6.93
2022-11-19T09:49:11.918Z,7.90
2022-11-19T09:51:40.602Z,6.87
2022-11-19T09:54:15.894Z,8.30
2022-11-19T09:56:44.389Z,9.43
2022-11-19T09:59:24.254Z,7.97
2022-11-19T10:01:51.828Z,8.47
2022-11-19T10:04:23.200Z,6.77
2022-11-19T10:07:10.212Z,6.67
2022-11-19T10:09:45.302Z,6.67
2022-11-19T10:12:17.475Z,8.10
2022-11-19T10:14:50.110Z,7.20
2022-11-19T10:17:36.720Z,7.53
2022-11-19T10:20:23.428Z,6.77
2022-11-19T10:23:09.328Z,7.20
2022-11-19T10:25:40.121Z,7.20
2022-11-19T10:28:13.570Z,7.87
2022-11-19T10:30:41.278Z,8.57
2022-11-19T10:33:14.434Z,9.70
2022-11-19T10:35:44.602Z,7.70
2022-11-19T10:38:35.078Z,7.67
2022-11-19T10:41:23.232Z,9.60
2022-11-19T10:43:59.490Z,7.70
2022-11-19T10:46:28.135Z,8.63
2022-11-19T10:48:59.198Z,7.60
2022-11-19T10:51:31.096Z,7.83
2022-11-19T10:53:58.787Z,9.23
2022-11-19T10:56:35.649Z,8.57
2022-11-19T10:59:10.314Z,8.97
2022-11-19T11:01:39.200Z,9.37
2022-11-19T11:04:07.951Z,8.90
2022-11-19T11:06:50.374Z,8.73
2022-11-19T11:09:37.807Z,8.10
2022-11-19T11:12:30.491Z,8.93
2022-11-19T11:15:02.800Z,7.97
2022-11-19T11:17:31.566Z,8.20
2022-11-19T11:20:18.433Z,9.47
2022-11-19T11:22:47.469Z,9.40
2022-11-19T11:25:22.394Z,8.80
2022-11-19T11:28:05.369Z,8.10
2022-11-19T11:30:33.294Z,8.73
2022-11-19T11:33:18.613Z,9.87
2022-11-19T11:35:46.763Z,8.23
2022-11-19T11:38:15.646Z,9.20
2022-11-19T11:41:05.357Z,8.40
2022-11-19T11:44:01.107Z,9.23
2022-11-19T11:46:43.473Z,9.20
2022-11-19T11:49:22.196Z,8.90
2022-11-19T11:51:55.791Z,8.40
2022-11-19T11:54:22.930Z,9.30
2022-11-19T11:56:51.111Z,10.23
2022-11-19T11:59:25.125Z,8.43
2022-11-19T12:01:56.399Z,9.73
2022-11-19T12:04:24.304Z,10.17
2022-11-19T12:06:58.908Z,12.10
2022-11-19T12:09:29.784Z,11.03
2022-11-19T12:12:01.235Z,9.30
2022-11-19T12:14:34.519Z,9.23
2022-11-19T12:17:07.405Z,10.10
2022-11-19T12:19:43.315Z,8.90
2022-11-19T12:22:30.707Z,9.43
2022-11-19T12:25:13.801Z,9.80
2022-11-19T12:27:47.244Z,9.73
2022-11-19T12:30:20.535Z,9.10
2022-11-19T12:33:11.006Z,9.93
2022-11-19T12:35:47.824Z,8.97
2022-11-19T12:38:21.809Z,10.70
2022-11-19T12:41:18.094Z,10.03
2022-11-19T12:43:53.369Z,10.20
2022-11-19T12:46:29.709Z,9.97
2022-11-19T12:49:06.060Z,9.60
2022-11-19T12:51:45.498Z,10.90
2022-11-19T12:54:28.893Z,9.90
2022-11-19T12:57:12.337Z,10.87
2022-11-19T12:59:58.371Z,10.17
2022-11-19T13:02:30.343Z,10.27
2022-11-19T13:05:01.196Z,9.07
2022-11-19T13:07:38.876Z,11.03
2022-11-19T13:10:15.521Z,10.23
2022-11-19T13:12:50.441Z,9.33
2022-11-19T13:15:23.433Z,10.13
2022-11-19T13:17:52.040Z,10.60
2022-11-19T13:20:24.363Z,9.93
2022-11-19T13:22:54.253Z,10.67
2022-11-19T13:25:30.862Z,10.30
2022-11-19T13:27:58.547Z,10.97
2022-11-19T13:30:27.236Z,11.23
2022-11-19T13:33:24.453Z,12.03
2022-11-19T13:36:03.761Z,10.40
2022-11-19T13:38:44.796Z,11.27
2022-11-19T13:41:19.639Z,9.30
2022-11-19T13:44:05.680Z,12.60
2022-11-19T13:46:39.479Z,11.27
2022-11-19T13:49:08.580Z,11.90
2022-11-19T13:51:45.755Z,11.33
2022-11-19T13:54:22.231Z,11.83
2022-11-19T13:56:50.932Z,11.87
2022-11-19T13:59:24.611Z,11.30
2022-11-19T14:01:56.107Z,11.43
2022-11-19T14:04:41.357Z,10.60
2022-11-19T14:07:14.827Z,12.70
2022-11-19T14:09:49.943Z,12.43
2022-11-19T14:12:40.215Z,12.13
2022-11-19T14:15:28.985Z,12.80
2022-11-19T14:18:34.752Z,12.50
2022-11-19T14:21:39.757Z,12.40
2022-11-19T14:24:46.641Z,12.83
2022-11-19T14:27:24.100Z,12.67
2022-11-19T14:29:51.258Z,13.00
2022-11-19T14:32:19.624Z,12.07
2022-11-19T14:34:50.059Z,12.50
2022-11-19T14:37:23.361Z,12.87
2022-11-19T14:39:56.588Z,13.83
2022-11-19T14:42:23.972Z,12.70
2022-11-19T14:45:11.489Z,11.93
2022-11-19T14:47:38.707Z,13.00
2022-11-19T14:50:10.208Z,14.53
2022-11-19T14:52:39.974Z,12.30
2022-11-19T14:55:19.218Z,12.30
2022-11-19T14:57:53.863Z,12.53
2022-11-19T15:00:21.458Z,11.67
2022-11-19T15:02:51.464Z,13.00
2022-11-19T15:05:20.539Z,12.70
2022-11-19T15:07:56.179Z,12.60
2022-11-19T15:10:26.742Z,12.93
2022-11-19T15:13:03.433Z,13.53
2022-11-19T15:15:38.291Z,11.50
2022-11-19T15:18:17.717Z,12.53
2022-11-19T15:21:00.852Z,12.47
2022-11-19T15:23:28.041Z,12.73
2022-11-19T15:26:01.537Z,12.20
2022-11-19T15:28:36.736Z,12.73
2022-11-19T15:31:23.370Z,13.90
2022-11-19T15:34:23.185Z,12.97
2022-11-19T15:36:56.928Z,11.63
2022-11-19T15:39:24.079Z,13.60
2022-11-19T15:42:00.442Z,13.90
2022-11-19T15:44:37.209Z,14.57
2022-11-19T15:47:08.296Z,14.80
2022-11-19T15:49:36.807Z,14.20
2022-11-19T15:52:24.359Z,15.63
2022-11-19T15:54:51.535Z,14.40
2022-11-19T15:57:27.448Z,14.43
2022-11-19T15:59:58.366Z,14.67
2022-11-19T16:02:38.123Z,15.33
2022-11-19T16:05:06.175Z,14.00
2022-11-19T16:07:34.703Z,15.53
2022-11-19T16:10:02.388Z,15.07
2022-11-19T16:12:50.753Z,16.17
2022-11-19T16:15:37.988Z,17.53
2022-11-19T16:18:22.618Z,16.90
2022-11-19T16:20:51.539Z,15.03
2022-11-19T16:23:23.095Z,17.00
2022-11-19T16:25:51.958Z,15.13
2022-11-19T16:28:20.631Z,14.80
2022-11-19T16:30:53.722Z,14.90
2022-11-19T16:33:22.995Z,15.67
2022-11-19T16:35:53.702Z,14.07
2022-11-19T16:38:24.070Z,14.13
2022-11-19T16:41:10.337Z,15.80
2022-11-19T16:43:37.668Z,16.50
2022-11-19T16:46:05.856Z,14.20
2022-11-19T16:48:45.102Z,15.30
2022-11-19T16:51:32.725Z,15.50
2022-11-19T16:54:00.178Z,14.57
2022-11-19T16:56:32.094Z,16.37
2022-11-19T16:59:00.550Z,14.90
2022-11-19T17:01:29.581Z,13.77
2022-11-19T17:04:07.055Z,15.80
2022-11-19T17:06:36.795Z,15.73
2022-11-19T17:09:04.942Z,15.30
2022-11-19T17:11:57.054Z,14.33
2022-11-19T17:14:41.233Z,15.57
2022-11-19T17:17:40.331Z,14.77
2022-11-19T17:20:26.983Z,14.27
2022-11-19T17:22:54.695Z,14.13
2022-11-19T17:25:21.846Z,13.90
2022-11-19T17:27:53.712Z,15.67
2022-11-19T17:30:22.794Z,16.83
2022-11-19T17:32:54.866Z,16.77
2022-11-19T17:35:41.607Z,14.23
2022-11-19T17:38:28.297Z,15.30
2022-11-19T17:40:59.979Z,18.10
2022-11-19T17:43:50.938Z,15.83
2022-11-19T17:46:18.480Z,14.97
2022-11-19T17:48:46.592Z,16.97
2022-11-19T17:51:15.055Z,16.23
2022-11-19T17:53:42.337Z,15.03
2022-11-19T17:56:17.760Z,19.37
2022-11-19T17:58:45.002Z,15.57
2022-11-19T18:01:12.385Z,17.30
2022-11-19T18:03:40.227Z,15.77
2022-11-19T18:06:11.611Z,14.53
2022-11-19T18:08:41.912Z,14.27
2022-11-19T18:11:14.276Z,14.17
2022-11-19T18:13:42.143Z,14.83
2022-11-19T18:16:13.604Z,14.63
2022-11-19T18:18:40.872Z,15.47
2022-11-19T18:21:12.809Z,15.07
2022-11-19T18:23:42.413Z,14.80
2022-11-19T18:26:10.485Z,15.90
2022-11-19T18:28:38.686Z,14.60
2022-11-19T18:31:07.917Z,15.20
2022-11-19T18:33:37.392Z,14.83
2022-11-19T18:36:05.179Z,16.00
2022-11-19T18:38:33.915Z,15.73
2022-11-19T18:41:01.394Z,14.53
2022-11-19T18:43:47.909Z,15.47
2022-11-19T18:46:15.087Z,16.53
2022-11-19T18:48:42.330Z,15.97
2022-11-19T18:51:11.669Z,15.80
2022-11-19T18:53:39.113Z,15.37
2022-11-19T18:56:06.957Z,15.10
2022-11-19T18:58:35.340Z,15.73
2022-11-19T19:01:06.218Z,15.37
2022-11-19T19:03:34.270Z,15.90
2022-11-19T19:06:02.620Z,16.10
2022-11-19T19:08:30.322Z,15.30
2022-11-19T19:11:17.499Z,15.40
2022-11-19T19:13:46.385Z,15.00
2022-11-19T19:16:13.893Z,14.27
2022-11-19T19:18:41.058Z,14.50
2022-11-19T19:21:18.792Z,15.67
2022-11-19T19:23:46.144Z,16.43
2022-11-19T19:26:14.107Z,16.83
2022-11-19T19:28:41.347Z,17.60
2022-11-19T19:31:16.442Z,17.03
2022-11-19T19:33:48.232Z,14.40
2022-11-19T19:36:16.089Z,16.27
2022-11-19T19:38:43.439Z,17.50
2022-11-19T19:41:15.342Z,15.10
2022-11-19T19:43:43.425Z,14.20
2022-11-19T19:46:15.837Z,14.80
2022-11-19T19:48:47.000Z,15.53
2022-11-19T19:51:15.950Z,17.73
2022-11-19T19:53:43.683Z,15.00
2022-11-19T19:56:13.464Z,14.37
2022-11-19T19:58:40.976Z,13.93
2022-11-19T20:01:08.847Z,17.53
2022-11-19T20:03:36.228Z,17.60
2022-11-19T20:06:04.424Z,18.50
2022-11-19T20:08:31.779Z,16.67
2022-11-19T20:11:04.904Z,17.87
2022-11-19T20:13:32.282Z,16.17
2022-11-19T20:16:04.328Z,15.67
2022-11-19T20:18:31.985Z,17.23
2022-11-19T20:21:00.296Z,16.63
2022-11-19T20:23:31.000Z,15.30
2022-11-19T20:26:02.311Z,14.10
2022-11-19T20:28:29.651Z,15.30
2022-11-19T20:31:10.505Z,16.53
2022-11-19T20:33:38.322Z,16.40
2022-11-19T20:36:06.342Z,15.77
2022-11-19T20:38:35.874Z,15.10
2022-11-19T20:41:05.362Z,15.83
2022-11-19T20:43:52.968Z,16.40
2022-11-19T20:46:21.381Z,15.07
2022-11-19T20:48:49.835Z,14.23
2022-11-19T20:51:19.678Z,16.40
2022-11-19T20:53:47.382Z,15.57
2022-11-19T20:56:14.909Z,17.13
2022-11-19T20:58:42.405Z,16.73
2022-11-19T21:01:11.037Z,15.37
2022-11-19T21:03:39.138Z,16.43
2022-11-19T21:06:07.581Z,16.00
2022-11-19T21:08:36.388Z,17.07
2022-11-19T21:11:11.428Z,15.67
2022-11-19T21:13:39.188Z,17.47
2022-11-19T21:16:07.363Z,15.67
2022-11-19T21:18:37.035Z,15.67
2022-11-19T21:21:07.832Z,16.90
2022-11-19T21:23:35.000Z,15.83
2022-11-19T21:26:13.064Z,15.83
2022-11-19T21:28:40.295Z,15.30
2022-11-19T21:31:07.544Z,16.17
2022-11-19T21:33:34.675Z,14.33
2022-11-19T21:36:03.530Z,16.67
2022-11-19T21:38:30.693Z,18.50
2022-11-19T21:40:58.049Z,14.83
2022-11-19T21:43:26.501Z,16.80
2022-11-19T21:45:54.253Z,15.80
2022-11-19T21:48:22.249Z,20.37
2022-11-19T21:50:52.115Z,16.53
2022-11-19T21:53:20.793Z,16.40
2022-11-19T21:55:48.327Z,16.67
2022-11-19T21:58:16.916Z,16.20
2022-11-19T22:00:46.829Z,16.80
2022-11-19T22:03:16.561Z,15.53
2022-11-19T22:05:43.735Z,15.10
2022-11-19T22:08:10.906Z,16.40
2022-11-19T22:10:41.462Z,16.70
2022-11-19T22:13:13.659Z,17.33
2022-11-19T22:15:42.032Z,17.30
2022-11-19T22:18:10.762Z,16.10
2022-11-19T22:20:39.480Z,16.37
2022-11-19T22:23:06.659Z,15.50
2022-11-19T22:25:35.659Z,18.57
2022-11-19T22:28:03.058Z,19.27
2022-11-19T22:30:32.384Z,16.33
2022-11-19T22:32:59.618Z,16.90
2022-11-19T22:35:26.825Z,18.70
2022-11-19T22:37:53.998Z,16.93
2022-11-19T22:40:21.303Z,18.10
2022-11-19T22:42:48.782Z,18.17
2022-11-19T22:45:15.983Z,14.80
2022-11-19T22:47:43.487Z,19.60
2022-11-19T22:50:11.763Z,18.07
2022-11-19T22:52:38.964Z,16.83
2022-11-19T22:55:06.390Z,16.27
2022-11-19T22:57:33.595Z,17.97
2022-11-19T23:00:00.776Z,15.60
2022-11-19T23:02:28.170Z,13.63
2022-11-19T23:04:55.471Z,14.83
2022-11-19T23:07:22.758Z,15.63
2022-11-19T23:09:50.701Z,16.10
2022-11-19T23:12:36.735Z,15.10
2022-11-19T23:15:04.211Z,15.80
2022-11-19T23:17:31.858Z,15.20
2022-11-19T23:20:04.353Z,13.77
2022-11-19T23:22:32.248Z,14.40
2022-11-19T23:24:59.671Z,15.67
2022-11-19T23:27:27.216Z,16.80
2022-11-19T23:29:55.020Z,17.03
2022-11-19T23:32:22.895Z,16.63
2022-11-19T23:34:50.325Z,15.60
2022-11-19T23:37:18.066Z,16.57
2022-11-19T23:39:46.535Z,17.03
2022-11-19T23:42:14.026Z,16.00
2022-11-19T23:44:41.553Z,16.00
2022-11-19T23:47:08.923Z,15.60
2022-11-19T23:49:36.363Z,15.70
2022-11-19T23:52:03.822Z,16.23
2022-11-19T23:54:31.182Z,14.80
2022-11-19T23:57:01.008Z,15.70
2022-11-19T23:59:28.810Z,16.03
